Kaprifol — 5BXX2 — position and weather

sailwx.info

Track history (hours):
 
Tides and Currents Weather Stations Pressure Air Temp Water Temp Dewpoint Dewpoint Depression Visibility Wind Speed Wind Dir Waves Ship Positions

Kaprifol

Last reported at 2015-Jan-28 05:32 UTC. Time now 2015-Jan-28 06:41 UTC.
Position N 58°58' E 005°45'.

Length 89 m; draft 4.5 m.

Type: Tanker. MMSI: 210445000.

Date/timePositionNaut miles runAvg speedWind from/ knotsBaromVisibWave heightAir tempDewpointWater temp
2015-Jan-28 05:32N 58°58' E 005°45'0 0.0
2015-Jan-28 04:32N 58°58' E 005°45'0 0.0
2015-Jan-28 03:32N 58°58' E 005°45'0 0.0
2015-Jan-28 02:32N 58°58' E 005°45'0 0.0
2015-Jan-28 01:32N 58°58' E 005°45'0 0.0
2015-Jan-28 00:32N 58°58' E 005°45'0 0.0
2015-Jan-27 23:32N 58°58' E 005°45'0 0.0
2015-Jan-27 22:32N 58°58' E 005°45'4 3.7
2015-Jan-27 21:33N 59°02' E 005°45'7 7.1
2015-Jan-27 20:34N 58°59' E 005°33'1010.0
2015-Jan-27 19:33N 58°49' E 005°27'34 8.5
2015-Jan-27 15:33N 58°15' E 005°30'1010.2
2015-Jan-27 14:33N 58°06' E 005°40'163 3.6
2015-Jan-25 17:33N 55°33' E 007°20'1110.7
2015-Jan-25 16:33N 55°25' E 007°07'1110.7
2015-Jan-25 15:33N 55°17' E 006°53'1110.6
2015-Jan-25 14:33N 55°09' E 006°41'1110.7
2015-Jan-25 13:33N 55°01' E 006°29'6410.7
2015-Jan-25 07:33N 54°14' E 005°12'10 9.6
2015-Jan-25 06:33N 54°08' E 005°00'9 8.8
2015-Jan-25 05:33N 53°59' E 004°56'10 9.0
2015-Jan-25 04:25N 53°49' E 004°53'16 8.6
2015-Jan-25 02:33N 53°34' E 004°47'8 8.0
2015-Jan-25 01:32N 53°26' E 004°42'8 8.0
2015-Jan-25 00:30N 53°18' E 004°37'20 8.3
2015-Jan-24 22:03N 53°00' E 004°23'4 8.4
2015-Jan-24 21:33N 52°56' E 004°19'9 8.9
2015-Jan-24 20:33N 52°49' E 004°12'10 9.6
2015-Jan-24 19:33N 52°40' E 004°04'10 9.9
2015-Jan-24 18:33N 52°32' E 003°56'9 9.2
2015-Jan-24 17:32N 52°23' E 003°53'8 8.5
2015-Jan-24 16:33N 52°14' E 003°53'8 8.1
2015-Jan-24 15:33N 52°06' E 003°56'6 5.5
2015-Jan-24 14:33N 52°01' E 003°59'9 8.7
2015-Jan-24 13:33N 51°56' E 004°11'4 4.0
2015-Jan-24 12:33N 51°53' E 004°14'4 4.2
2015-Jan-24 11:33N 51°52' E 004°20'9 9.4
2015-Jan-24 10:33N 51°48' E 004°35'8 7.6
2015-Jan-24 09:33N 51°41' E 004°35'0 0.3
2015-Jan-24 08:30N 51°41' E 004°35'0 0.0
2015-Jan-24 07:27N 51°41' E 004°35'0 0.0
2015-Jan-24 06:33N 51°41' E 004°35'0 0.0
2015-Jan-24 05:33N 51°41' E 004°35'0 0.0
2015-Jan-24 04:30N 51°41' E 004°35'0 0.0
2015-Jan-24 03:33N 51°41' E 004°35'0 0.0
2015-Jan-24 02:33N 51°41' E 004°35'0 0.0
2015-Jan-24 01:33N 51°41' E 004°35'0 0.0
2015-Jan-24 00:33N 51°41' E 004°35'0 0.0
2015-Jan-23 23:33N 51°41' E 004°35'0 0.0
2015-Jan-23 22:30N 51°41' E 004°35'1 0.7
2015-Jan-23 21:33N 51°41' E 004°34'1 0.6
2015-Jan-23 20:33N 51°41' E 004°35'0 0.0
2015-Jan-23 19:30N 51°41' E 004°35'0 0.0
2015-Jan-23 18:33N 51°41' E 004°35'0 0.0
2015-Jan-23 17:33N 51°41' E 004°35'0 0.0
2015-Jan-23 16:32N 51°41' E 004°35'0 0.0
2015-Jan-23 15:32N 51°41' E 004°35'0 0.0
2015-Jan-23 14:29N 51°41' E 004°35'0 0.0
2015-Jan-23 13:29N 51°41' E 004°35'0 0.0
2015-Jan-23 12:32N 51°41' E 004°35'0 0.0
2015-Jan-23 11:29N 51°41' E 004°35'0 0.0
2015-Jan-23 10:29N 51°41' E 004°35'0 0.0
2015-Jan-23 09:32N 51°41' E 004°35'0 0.0
2015-Jan-23 08:32N 51°41' E 004°35'0 0.0
2015-Jan-23 07:32N 51°41' E 004°35'0 0.0
2015-Jan-23 06:23N 51°41' E 004°35'0 0.0
2015-Jan-23 05:32N 51°41' E 004°35'0 0.0
2015-Jan-23 04:29N 51°41' E 004°35'0 0.0
2015-Jan-23 03:26N 51°41' E 004°35'0 0.0
2015-Jan-23 02:32N 51°41' E 004°35'0 0.0
2015-Jan-23 01:20N 51°41' E 004°35'0 0.0
2015-Jan-23 00:32N 51°41' E 004°35'3 2.6
2015-Jan-22 23:33N 51°44' E 004°38'4 4.0
2015-Jan-22 22:33N 51°48' E 004°38'0 0.0
2015-Jan-22 21:31N 51°48' E 004°38'0 0.0
2015-Jan-22 20:31N 51°48' E 004°38'0 0.0
2015-Jan-22 19:31N 51°48' E 004°38'0 0.0
2015-Jan-22 18:31N 51°48' E 004°38'0 0.0
2015-Jan-22 17:31N 51°48' E 004°38'0 0.0
2015-Jan-22 16:28N 51°48' E 004°38'0 0.0
2015-Jan-22 15:31N 51°48' E 004°38'0 0.0
2015-Jan-22 14:31N 51°48' E 004°38'0 0.0
2015-Jan-22 13:31N 51°48' E 004°38'0 0.0
2015-Jan-22 12:31N 51°48' E 004°38'0 0.0
2015-Jan-22 11:31N 51°48' E 004°38'0 0.0
2015-Jan-22 10:31N 51°48' E 004°38'0 0.0
2015-Jan-22 09:31N 51°48' E 004°38'0 0.0
2015-Jan-22 08:31N 51°48' E 004°38'0 0.0
2015-Jan-22 07:31N 51°48' E 004°38'0 0.0
2015-Jan-22 06:31N 51°48' E 004°38'0 0.0
2015-Jan-22 05:31N 51°48' E 004°38'0 0.0
2015-Jan-22 04:31N 51°48' E 004°38'0 0.0
2015-Jan-22 03:28N 51°48' E 004°38'0 0.0
2015-Jan-22 02:31N 51°48' E 004°38'0 0.0
2015-Jan-22 01:31N 51°48' E 004°38'0 0.0
2015-Jan-22 00:31N 51°48' E 004°38'0 0.0
2015-Jan-21 23:31N 51°48' E 004°38'0 0.0
2015-Jan-21 22:49N 51°48' E 004°38'0 0.1
2015-Jan-21 22:46N 51°48' E 004°38'0 0.0
2015-Jan-21 22:28N 51°48' E 004°38'0 0.0
2015-Jan-21 21:31N 51°48' E 004°38'0 0.0
2015-Jan-21 20:31N 51°48' E 004°38'0 0.0
2015-Jan-21 19:31N 51°48' E 004°38'0 0.0
2015-Jan-21 18:31N 51°48' E 004°38'0 0.0
2015-Jan-21 17:31N 51°48' E 004°38'0 0.0
2015-Jan-21 16:31N 51°48' E 004°38'0 0.0
2015-Jan-21 15:31N 51°48' E 004°38'0 0.0
2015-Jan-21 14:31N 51°48' E 004°38'0 0.0
2015-Jan-21 13:31N 51°48' E 004°38'0 0.0
2015-Jan-21 12:28N 51°48' E 004°38'0 0.0
2015-Jan-21 11:31N 51°48' E 004°38'0 0.0
2015-Jan-21 10:34N 51°48' E 004°38'0 0.0
2015-Jan-21 09:33N 51°48' E 004°38'0 0.0
2015-Jan-21 08:30N 51°48' E 004°38'0 0.0
2015-Jan-21 07:30N 51°48' E 004°38'0 0.0
2015-Jan-21 06:33N 51°48' E 004°38'0 0.0
2015-Jan-21 05:33N 51°48' E 004°38'0 0.0
2015-Jan-21 04:33N 51°48' E 004°38'0 0.0
2015-Jan-21 03:33N 51°48' E 004°38'0 0.0
2015-Jan-21 02:33N 51°48' E 004°38'0 0.0
2015-Jan-21 01:33N 51°48' E 004°38'0 0.0
2015-Jan-21 00:33N 51°48' E 004°38'0 0.0
2015-Jan-20 23:33N 51°48' E 004°38'0 0.0
2015-Jan-20 22:33N 51°48' E 004°38'0 0.0
2015-Jan-20 21:33N 51°48' E 004°38'0 0.0
2015-Jan-20 20:33N 51°48' E 004°38'0 0.0
2015-Jan-20 19:33N 51°48' E 004°38'0 0.0
2015-Jan-20 18:33N 51°48' E 004°38'0 0.0
2015-Jan-20 17:33N 51°48' E 004°38'0 0.0
2015-Jan-20 16:33N 51°48' E 004°38'0 0.0
2015-Jan-20 15:33N 51°48' E 004°38'0 0.0
2015-Jan-20 14:33N 51°48' E 004°38'0 0.0
2015-Jan-20 13:33N 51°48' E 004°38'0 0.0
2015-Jan-20 12:33N 51°48' E 004°38'0 0.0
2015-Jan-20 11:33N 51°48' E 004°38'0 0.0
2015-Jan-20 10:30N 51°48' E 004°38'0 0.0
2015-Jan-20 09:33N 51°48' E 004°38'0 0.0
2015-Jan-20 08:33N 51°48' E 004°38'0 0.0
2015-Jan-20 07:33N 51°48' E 004°38'0 0.0
2015-Jan-20 06:33N 51°48' E 004°38'0 0.0
2015-Jan-20 05:30N 51°48' E 004°38'0 0.0
2015-Jan-20 04:27N 51°48' E 004°38'0 0.0
2015-Jan-20 03:27N 51°48' E 004°38'0 0.0
2015-Jan-20 02:30N 51°48' E 004°38'0 0.0
2015-Jan-20 01:33N 51°48' E 004°38'0 0.0
2015-Jan-20 00:33N 51°48' E 004°38'0 0.0
2015-Jan-19 23:33N 51°48' E 004°38'0 0.0
2015-Jan-19 22:33N 51°48' E 004°38'0 0.0
2015-Jan-19 21:33N 51°48' E 004°38'0 0.0
2015-Jan-19 20:32N 51°48' E 004°38'0 0.0
2015-Jan-19 19:32N 51°48' E 004°38'0 0.0
2015-Jan-19 18:32N 51°48' E 004°38'0 0.0
2015-Jan-19 17:32N 51°48' E 004°38'0 0.0
2015-Jan-19 16:32N 51°48' E 004°38'0 0.0
2015-Jan-19 15:32N 51°48' E 004°38'0 0.0
2015-Jan-19 14:32N 51°48' E 004°38'0 0.0
2015-Jan-19 13:32N 51°48' E 004°38'0 0.0
2015-Jan-19 12:32N 51°48' E 004°38'0 0.0
2015-Jan-19 11:32N 51°48' E 004°38'0 0.0
2015-Jan-19 10:32N 51°48' E 004°38'0 0.0
2015-Jan-19 09:32N 51°48' E 004°38'0 0.0
2015-Jan-19 08:32N 51°48' E 004°38'0 0.0
2015-Jan-19 07:33N 51°48' E 004°38'0 0.0
2015-Jan-19 06:33N 51°48' E 004°38'0 0.0
2015-Jan-19 05:33N 51°48' E 004°38'0 0.0
2015-Jan-19 04:33N 51°48' E 004°38'0 0.0
2015-Jan-19 03:33N 51°48' E 004°38'0 0.0
2015-Jan-19 02:33N 51°48' E 004°38'0 0.0
2015-Jan-19 01:33N 51°48' E 004°38'0 0.0
2015-Jan-19 00:33N 51°48' E 004°38'0 0.0
2015-Jan-18 23:33N 51°48' E 004°38'0 0.0
2015-Jan-18 22:33N 51°48' E 004°38'0 0.0
2015-Jan-18 21:33N 51°48' E 004°38'0 0.0
2015-Jan-18 20:33N 51°48' E 004°38'0 0.0
2015-Jan-18 19:33N 51°48' E 004°38'0 0.0
2015-Jan-18 18:33N 51°48' E 004°38'0 0.0
2015-Jan-18 17:33N 51°48' E 004°38'0 0.0
2015-Jan-18 16:33N 51°48' E 004°38'0 0.0
2015-Jan-18 15:33N 51°48' E 004°38'0 0.0
2015-Jan-18 14:33N 51°48' E 004°38'3 3.0
2015-Jan-18 13:33N 51°49' E 004°34'10 9.5
2015-Jan-18 12:33N 51°52' E 004°19'4 3.7
2015-Jan-18 11:33N 51°54' E 004°14'0 0.4
2015-Jan-18 10:33N 51°54' E 004°14'7 7.4
2015-Jan-18 09:33N 51°59' E 004°04'8 8.2
2015-Jan-18 08:33N 52°00' E 003°51'5 5.2
2015-Jan-18 07:30N 52°04' E 003°45'6 4.9
2015-Jan-18 06:15N 52°10' E 003°45'3 4.0
2015-Jan-18 05:33N 52°13' E 003°46'  
Track history (hours):
 
Tides and Currents Weather Stations Pressure Air Temp Water Temp Dewpoint Dewpoint Depression Visibility Wind Speed Wind Dir Waves Ship Positions

Kaprifol

Last reported at 2015-Jan-28 05:32 UTC. Time now 2015-Jan-28 06:41 UTC.
Position N 58°58' E 005°45'.

Length 89 m; draft 4.5 m.

Type: Tanker. MMSI: 210445000.

Date/timePositionNaut miles runAvg speedWind from/ knotsBaromVisibWave heightAir tempDewpointWater temp
2015-Jan-28 05:32N 58°58' E 005°45'0 0.0
2015-Jan-28 04:32N 58°58' E 005°45'0 0.0
2015-Jan-28 03:32N 58°58' E 005°45'0 0.0
2015-Jan-28 02:32N 58°58' E 005°45'0 0.0
2015-Jan-28 01:32N 58°58' E 005°45'0 0.0
2015-Jan-28 00:32N 58°58' E 005°45'0 0.0
2015-Jan-27 23:32N 58°58' E 005°45'0 0.0
2015-Jan-27 22:32N 58°58' E 005°45'4 3.7
2015-Jan-27 21:33N 59°02' E 005°45'7 7.1
2015-Jan-27 20:34N 58°59' E 005°33'1010.0
2015-Jan-27 19:33N 58°49' E 005°27'34 8.5
2015-Jan-27 15:33N 58°15' E 005°30'1010.2
2015-Jan-27 14:33N 58°06' E 005°40'163 3.6
2015-Jan-25 17:33N 55°33' E 007°20'1110.7
2015-Jan-25 16:33N 55°25' E 007°07'1110.7
2015-Jan-25 15:33N 55°17' E 006°53'1110.6
2015-Jan-25 14:33N 55°09' E 006°41'1110.7
2015-Jan-25 13:33N 55°01' E 006°29'6410.7
2015-Jan-25 07:33N 54°14' E 005°12'10 9.6
2015-Jan-25 06:33N 54°08' E 005°00'9 8.8
2015-Jan-25 05:33N 53°59' E 004°56'10 9.0
2015-Jan-25 04:25N 53°49' E 004°53'16 8.6
2015-Jan-25 02:33N 53°34' E 004°47'8 8.0
2015-Jan-25 01:32N 53°26' E 004°42'8 8.0
2015-Jan-25 00:30N 53°18' E 004°37'20 8.3
2015-Jan-24 22:03N 53°00' E 004°23'4 8.4
2015-Jan-24 21:33N 52°56' E 004°19'9 8.9
2015-Jan-24 20:33N 52°49' E 004°12'10 9.6
2015-Jan-24 19:33N 52°40' E 004°04'10 9.9
2015-Jan-24 18:33N 52°32' E 003°56'9 9.2
2015-Jan-24 17:32N 52°23' E 003°53'8 8.5
2015-Jan-24 16:33N 52°14' E 003°53'8 8.1
2015-Jan-24 15:33N 52°06' E 003°56'6 5.5
2015-Jan-24 14:33N 52°01' E 003°59'9 8.7
2015-Jan-24 13:33N 51°56' E 004°11'4 4.0
2015-Jan-24 12:33N 51°53' E 004°14'4 4.2
2015-Jan-24 11:33N 51°52' E 004°20'9 9.4
2015-Jan-24 10:33N 51°48' E 004°35'8 7.6
2015-Jan-24 09:33N 51°41' E 004°35'0 0.3
2015-Jan-24 08:30N 51°41' E 004°35'0 0.0
2015-Jan-24 07:27N 51°41' E 004°35'0 0.0
2015-Jan-24 06:33N 51°41' E 004°35'0 0.0
2015-Jan-24 05:33N 51°41' E 004°35'0 0.0
2015-Jan-24 04:30N 51°41' E 004°35'0 0.0
2015-Jan-24 03:33N 51°41' E 004°35'0 0.0
2015-Jan-24 02:33N 51°41' E 004°35'0 0.0
2015-Jan-24 01:33N 51°41' E 004°35'0 0.0
2015-Jan-24 00:33N 51°41' E 004°35'0 0.0
2015-Jan-23 23:33N 51°41' E 004°35'0 0.0
2015-Jan-23 22:30N 51°41' E 004°35'1 0.7
2015-Jan-23 21:33N 51°41' E 004°34'1 0.6
2015-Jan-23 20:33N 51°41' E 004°35'0 0.0
2015-Jan-23 19:30N 51°41' E 004°35'0 0.0
2015-Jan-23 18:33N 51°41' E 004°35'0 0.0
2015-Jan-23 17:33N 51°41' E 004°35'0 0.0
2015-Jan-23 16:32N 51°41' E 004°35'0 0.0
2015-Jan-23 15:32N 51°41' E 004°35'0 0.0
2015-Jan-23 14:29N 51°41' E 004°35'0 0.0
2015-Jan-23 13:29N 51°41' E 004°35'0 0.0
2015-Jan-23 12:32N 51°41' E 004°35'0 0.0
2015-Jan-23 11:29N 51°41' E 004°35'0 0.0
2015-Jan-23 10:29N 51°41' E 004°35'0 0.0
2015-Jan-23 09:32N 51°41' E 004°35'0 0.0
2015-Jan-23 08:32N 51°41' E 004°35'0 0.0
2015-Jan-23 07:32N 51°41' E 004°35'0 0.0
2015-Jan-23 06:23N 51°41' E 004°35'0 0.0
2015-Jan-23 05:32N 51°41' E 004°35'0 0.0
2015-Jan-23 04:29N 51°41' E 004°35'0 0.0
2015-Jan-23 03:26N 51°41' E 004°35'0 0.0
2015-Jan-23 02:32N 51°41' E 004°35'0 0.0
2015-Jan-23 01:20N 51°41' E 004°35'0 0.0
2015-Jan-23 00:32N 51°41' E 004°35'3 2.6
2015-Jan-22 23:33N 51°44' E 004°38'4 4.0
2015-Jan-22 22:33N 51°48' E 004°38'0 0.0
2015-Jan-22 21:31N 51°48' E 004°38'0 0.0
2015-Jan-22 20:31N 51°48' E 004°38'0 0.0
2015-Jan-22 19:31N 51°48' E 004°38'0 0.0
2015-Jan-22 18:31N 51°48' E 004°38'0 0.0
2015-Jan-22 17:31N 51°48' E 004°38'0 0.0
2015-Jan-22 16:28N 51°48' E 004°38'0 0.0
2015-Jan-22 15:31N 51°48' E 004°38'0 0.0
2015-Jan-22 14:31N 51°48' E 004°38'0 0.0
2015-Jan-22 13:31N 51°48' E 004°38'0 0.0
2015-Jan-22 12:31N 51°48' E 004°38'0 0.0
2015-Jan-22 11:31N 51°48' E 004°38'0 0.0
2015-Jan-22 10:31N 51°48' E 004°38'0 0.0
2015-Jan-22 09:31N 51°48' E 004°38'0 0.0
2015-Jan-22 08:31N 51°48' E 004°38'0 0.0
2015-Jan-22 07:31N 51°48' E 004°38'0 0.0
2015-Jan-22 06:31N 51°48' E 004°38'0 0.0
2015-Jan-22 05:31N 51°48' E 004°38'0 0.0
2015-Jan-22 04:31N 51°48' E 004°38'0 0.0
2015-Jan-22 03:28N 51°48' E 004°38'0 0.0
2015-Jan-22 02:31N 51°48' E 004°38'0 0.0
2015-Jan-22 01:31N 51°48' E 004°38'0 0.0
2015-Jan-22 00:31N 51°48' E 004°38'0 0.0
2015-Jan-21 23:31N 51°48' E 004°38'0 0.0
2015-Jan-21 22:49N 51°48' E 004°38'0 0.1
2015-Jan-21 22:46N 51°48' E 004°38'0 0.0
2015-Jan-21 22:28N 51°48' E 004°38'0 0.0
2015-Jan-21 21:31N 51°48' E 004°38'0 0.0
2015-Jan-21 20:31N 51°48' E 004°38'0 0.0
2015-Jan-21 19:31N 51°48' E 004°38'0 0.0
2015-Jan-21 18:31N 51°48' E 004°38'0 0.0
2015-Jan-21 17:31N 51°48' E 004°38'0 0.0
2015-Jan-21 16:31N 51°48' E 004°38'0 0.0
2015-Jan-21 15:31N 51°48' E 004°38'0 0.0
2015-Jan-21 14:31N 51°48' E 004°38'0 0.0
2015-Jan-21 13:31N 51°48' E 004°38'0 0.0
2015-Jan-21 12:28N 51°48' E 004°38'0 0.0
2015-Jan-21 11:31N 51°48' E 004°38'0 0.0
2015-Jan-21 10:34N 51°48' E 004°38'0 0.0
2015-Jan-21 09:33N 51°48' E 004°38'0 0.0
2015-Jan-21 08:30N 51°48' E 004°38'0 0.0
2015-Jan-21 07:30N 51°48' E 004°38'0 0.0
2015-Jan-21 06:33N 51°48' E 004°38'0 0.0
2015-Jan-21 05:33N 51°48' E 004°38'0 0.0
2015-Jan-21 04:33N 51°48' E 004°38'0 0.0
2015-Jan-21 03:33N 51°48' E 004°38'0 0.0
2015-Jan-21 02:33N 51°48' E 004°38'0 0.0
2015-Jan-21 01:33N 51°48' E 004°38'0 0.0
2015-Jan-21 00:33N 51°48' E 004°38'0 0.0
2015-Jan-20 23:33N 51°48' E 004°38'0 0.0
2015-Jan-20 22:33N 51°48' E 004°38'0 0.0
2015-Jan-20 21:33N 51°48' E 004°38'0 0.0
2015-Jan-20 20:33N 51°48' E 004°38'0 0.0
2015-Jan-20 19:33N 51°48' E 004°38'0 0.0
2015-Jan-20 18:33N 51°48' E 004°38'0 0.0
2015-Jan-20 17:33N 51°48' E 004°38'0 0.0
2015-Jan-20 16:33N 51°48' E 004°38'0 0.0
2015-Jan-20 15:33N 51°48' E 004°38'0 0.0
2015-Jan-20 14:33N 51°48' E 004°38'0 0.0
2015-Jan-20 13:33N 51°48' E 004°38'0 0.0
2015-Jan-20 12:33N 51°48' E 004°38'0 0.0
2015-Jan-20 11:33N 51°48' E 004°38'0 0.0
2015-Jan-20 10:30N 51°48' E 004°38'0 0.0
2015-Jan-20 09:33N 51°48' E 004°38'0 0.0
2015-Jan-20 08:33N 51°48' E 004°38'0 0.0
2015-Jan-20 07:33N 51°48' E 004°38'0 0.0
2015-Jan-20 06:33N 51°48' E 004°38'0 0.0
2015-Jan-20 05:30N 51°48' E 004°38'0 0.0
2015-Jan-20 04:27N 51°48' E 004°38'0 0.0
2015-Jan-20 03:27N 51°48' E 004°38'0 0.0
2015-Jan-20 02:30N 51°48' E 004°38'0 0.0
2015-Jan-20 01:33N 51°48' E 004°38'0 0.0
2015-Jan-20 00:33N 51°48' E 004°38'0 0.0
2015-Jan-19 23:33N 51°48' E 004°38'0 0.0
2015-Jan-19 22:33N 51°48' E 004°38'0 0.0
2015-Jan-19 21:33N 51°48' E 004°38'0 0.0
2015-Jan-19 20:32N 51°48' E 004°38'0 0.0
2015-Jan-19 19:32N 51°48' E 004°38'0 0.0
2015-Jan-19 18:32N 51°48' E 004°38'0 0.0
2015-Jan-19 17:32N 51°48' E 004°38'0 0.0
2015-Jan-19 16:32N 51°48' E 004°38'0 0.0
2015-Jan-19 15:32N 51°48' E 004°38'0 0.0
2015-Jan-19 14:32N 51°48' E 004°38'0 0.0
2015-Jan-19 13:32N 51°48' E 004°38'0 0.0
2015-Jan-19 12:32N 51°48' E 004°38'0 0.0
2015-Jan-19 11:32N 51°48' E 004°38'0 0.0
2015-Jan-19 10:32N 51°48' E 004°38'0 0.0
2015-Jan-19 09:32N 51°48' E 004°38'0 0.0
2015-Jan-19 08:32N 51°48' E 004°38'0 0.0
2015-Jan-19 07:33N 51°48' E 004°38'0 0.0
2015-Jan-19 06:33N 51°48' E 004°38'0 0.0
2015-Jan-19 05:33N 51°48' E 004°38'0 0.0
2015-Jan-19 04:33N 51°48' E 004°38'0 0.0
2015-Jan-19 03:33N 51°48' E 004°38'0 0.0
2015-Jan-19 02:33N 51°48' E 004°38'0 0.0
2015-Jan-19 01:33N 51°48' E 004°38'0 0.0
2015-Jan-19 00:33N 51°48' E 004°38'0 0.0
2015-Jan-18 23:33N 51°48' E 004°38'0 0.0
2015-Jan-18 22:33N 51°48' E 004°38'0 0.0
2015-Jan-18 21:33N 51°48' E 004°38'0 0.0
2015-Jan-18 20:33N 51°48' E 004°38'0 0.0
2015-Jan-18 19:33N 51°48' E 004°38'0 0.0
2015-Jan-18 18:33N 51°48' E 004°38'0 0.0
2015-Jan-18 17:33N 51°48' E 004°38'0 0.0
2015-Jan-18 16:33N 51°48' E 004°38'0 0.0
2015-Jan-18 15:33N 51°48' E 004°38'0 0.0
2015-Jan-18 14:33N 51°48' E 004°38'3 3.0
2015-Jan-18 13:33N 51°49' E 004°34'10 9.5
2015-Jan-18 12:33N 51°52' E 004°19'4 3.7
2015-Jan-18 11:33N 51°54' E 004°14'0 0.4
2015-Jan-18 10:33N 51°54' E 004°14'7 7.4
2015-Jan-18 09:33N 51°59' E 004°04'8 8.2
2015-Jan-18 08:33N 52°00' E 003°51'5 5.2
2015-Jan-18 07:30N 52°04' E 003°45'6 4.9
2015-Jan-18 06:15N 52°10' E 003°45'3 4.0
2015-Jan-18 05:33N 52°13' E 003°46'  

Dump ship's entire track history